Time,TemperatureF,DewpointF,PressureIn,WindDirection,WindDirectionDegrees,WindSpeedMPH,WindSpeedGustMPH,Humidity,HourlyPrecipIn,Conditions,Clouds,dailyrainin,SoftwareType,DateUTC
2013-04-04 00:02:00,46.0,42.0,3.30,East,85,0.0,0.0,86,0.00,,,0.02,,2013-04-04 05:02:00,
2013-04-04 00:13:00,46.0,42.0,3.30,East,85,0.0,0.0,86,0.00,,,0.02,,2013-04-04 05:13:00,
2013-04-04 00:23:00,46.0,40.0,3.30,East,86,2.0,3.0,79,0.00,,,0.02,,2013-04-04 05:23:00,
2013-04-04 00:32:00,46.0,40.0,26.72,East,87,1.0,3.0,80,0.01,,,0.03,,2013-04-04 05:32:00,
2013-04-04 00:42:00,46.0,40.0,26.72,East,87,1.0,3.0,80,0.01,,,0.03,,2013-04-04 05:42:00,
2013-04-04 00:53:00,46.0,41.0,6.50,East,86,0.0,0.0,83,0.01,,,0.03,,2013-04-04 05:53:00,
2013-04-04 01:02:00,45.0,41.0,3.30,East,87,1.0,4.0,85,0.02,,,0.04,,2013-04-04 06:02:00,
2013-04-04 01:12:00,45.0,41.0,3.30,East,87,1.0,4.0,85,0.02,,,0.04,,2013-04-04 06:12:00,
2013-04-04 01:22:00,45.0,41.0,27.66,East,87,0.0,2.0,86,0.02,,,0.04,,2013-04-04 06:22:00,
2013-04-04 01:32:00,45.0,41.0,-100.00,East,87,0.0,1.0,87,0.02,,,0.05,,2013-04-04 06:32:00,
2013-04-04 01:42:00,45.0,41.0,-100.00,East,87,0.0,1.0,87,0.02,,,0.05,,2013-04-04 06:42:00,
2013-04-04 01:52:00,44.0,41.0,-100.00,East,87,0.0,1.0,88,0.02,,,0.05,,2013-04-04 06:52:00,
2013-04-04 02:02:00,44.0,40.0,3.30,East,87,1.0,3.0,87,0.01,,,0.05,,2013-04-04 07:02:00,
2013-04-04 02:12:00,44.0,40.0,3.30,East,87,1.0,3.0,87,0.01,,,0.05,,2013-04-04 07:12:00,
2013-04-04 02:22:00,44.0,40.0,32.63,East,92,1.0,5.0,87,0.02,,,0.06,,2013-04-04 07:22:00,
2013-04-04 02:32:00,44.0,40.0,4.82,East,89,2.0,6.0,87,0.01,,,0.06,,2013-04-04 07:32:00,
2013-04-04 02:43:00,44.0,40.0,4.82,East,89,2.0,6.0,87,0.01,,,0.06,,2013-04-04 07:43:00,
2013-04-04 02:52:00,44.0,41.0,-100.00,ESE,104,3.0,9.0,88,0.02,,,0.07,,2013-04-04 07:52:00,
2013-04-04 03:02:00,44.0,41.0,3.30,East,99,2.0,4.0,89,0.02,,,0.07,,2013-04-04 08:02:00,
2013-04-04 03:12:00,44.0,41.0,3.30,East,99,2.0,4.0,89,0.02,,,0.07,,2013-04-04 08:12:00,
2013-04-04 03:22:00,44.0,41.0,-100.00,ENE,78,2.0,6.0,90,0.02,,,0.08,,2013-04-04 08:22:00,
2013-04-04 03:32:00,44.0,42.0,3.36,East,85,2.0,6.0,91,0.03,,,0.09,,2013-04-04 08:32:00,
2013-04-04 03:43:00,44.0,42.0,3.36,East,85,2.0,6.0,91,0.03,,,0.09,,2013-04-04 08:43:00,
2013-04-04 03:52:00,44.0,42.0,-100.00,East,92,0.0,2.0,92,0.03,,,0.10,,2013-04-04 08:52:00,
2013-04-04 04:02:00,44.0,42.0,3.30,ESE,109,1.0,3.0,93,0.03,,,0.10,,2013-04-04 09:02:00,
2013-04-04 04:12:00,44.0,42.0,3.30,ESE,109,1.0,3.0,93,0.03,,,0.10,,2013-04-04 09:12:00,
2013-04-04 04:22:00,44.0,42.0,3.30,East,95,3.0,8.0,94,0.03,,,0.11,,2013-04-04 09:22:00,
2013-04-04 04:33:00,45.0,43.0,15.53,East,92,2.0,6.0,94,0.02,,,0.11,,2013-04-04 09:33:00,
2013-04-04 04:43:00,45.0,43.0,15.53,East,92,2.0,6.0,94,0.02,,,0.11,,2013-04-04 09:43:00,
2013-04-04 04:54:00,45.0,43.0,3.30,East,80,0.0,5.0,94,0.02,,,0.12,,2013-04-04 09:54:00,
2013-04-04 05:12:00,45.0,43.0,17.58,ESE,103,3.0,6.0,94,0.02,,,0.12,,2013-04-04 10:12:00,
2013-04-04 05:23:00,45.0,43.0,3.30,East,95,3.0,7.0,94,0.02,,,0.13,,2013-04-04 10:23:00,
2013-04-04 05:33:00,45.0,43.0,3.30,ESE,105,5.0,9.0,94,0.03,,,0.14,,2013-04-04 10:33:00,
2013-04-04 05:42:00,45.0,43.0,3.30,ESE,105,5.0,9.0,94,0.03,,,0.14,,2013-04-04 10:42:00,
2013-04-04 05:54:00,45.0,44.0,3.30,ESE,103,4.0,11.0,95,0.04,,,0.16,,2013-04-04 10:54:00,
2013-04-04 06:02:00,45.0,43.0,3.30,SE,140,5.0,11.0,94,0.05,,,0.17,,2013-04-04 11:02:00,
2013-04-04 06:12:00,45.0,43.0,3.30,SE,140,5.0,11.0,94,0.05,,,0.17,,2013-04-04 11:12:00,
2013-04-04 06:22:00,45.0,43.0,3.30,East,98,3.0,6.0,94,0.06,,,0.19,,2013-04-04 11:22:00,
2013-04-04 06:32:00,45.0,43.0,3.30,SE,127,0.0,7.0,94,0.06,,,0.20,,2013-04-04 11:32:00,
2013-04-04 06:42:00,45.0,43.0,3.30,SE,127,0.0,7.0,94,0.06,,,0.20,,2013-04-04 11:42:00,
2013-04-04 06:54:00,44.0,42.0,17.46,East,100,3.0,8.0,94,0.06,,,0.22,,2013-04-04 11:54:00,
2013-04-04 07:02:00,44.0,43.0,3.30,East,96,2.0,5.0,95,0.06,,,0.23,,2013-04-04 12:02:00,
2013-04-04 07:12:00,44.0,43.0,3.30,East,96,2.0,5.0,95,0.06,,,0.23,,2013-04-04 12:12:00,
2013-04-04 07:22:00,44.0,43.0,19.95,ESE,103,4.0,8.0,95,0.06,,,0.25,,2013-04-04 12:22:00,
2013-04-04 07:32:00,44.0,43.0,17.47,ESE,107,4.0,8.0,95,0.06,,,0.26,,2013-04-04 12:32:00,
2013-04-04 07:43:00,44.0,43.0,17.47,ESE,107,4.0,8.0,95,0.06,,,0.26,,2013-04-04 12:43:00,
2013-04-04 07:52:00,44.0,42.0,18.96,ENE,63,2.0,5.0,94,0.06,,,0.28,,2013-04-04 12:52:00,
2013-04-04 08:02:00,44.0,42.0,-100.00,East,99,2.0,6.0,94,0.07,,,0.30,,2013-04-04 13:02:00,
2013-04-04 08:12:00,44.0,42.0,-100.00,East,99,2.0,6.0,94,0.07,,,0.30,,2013-04-04 13:12:00,
2013-04-04 08:22:00,44.0,42.0,-100.00,East,101,2.0,6.0,94,0.06,,,0.31,,2013-04-04 13:22:00,
2013-04-04 08:32:00,44.0,43.0,17.58,NE,46,2.0,6.0,95,0.07,,,0.33,,2013-04-04 13:32:00,
2013-04-04 08:42:00,44.0,43.0,17.58,NE,46,2.0,6.0,95,0.07,,,0.33,,2013-04-04 13:42:00,
2013-04-04 08:53:00,44.0,43.0,32.37,East,98,3.0,7.0,95,0.06,,,0.34,,2013-04-04 13:53:00,
2013-04-04 09:03:00,44.0,43.0,3.37,East,100,3.0,9.0,95,0.06,,,0.36,,2013-04-04 14:03:00,
2013-04-04 09:12:00,44.0,43.0,3.37,East,100,3.0,9.0,95,0.06,,,0.36,,2013-04-04 14:12:00,
2013-04-04 09:22:00,44.0,43.0,16.10,East,97,4.0,7.0,95,0.06,,,0.37,,2013-04-04 14:22:00,
2013-04-04 09:32:00,44.0,43.0,3.30,East,101,1.0,8.0,95,0.05,,,0.38,,2013-04-04 14:32:00,
2013-04-04 09:42:00,44.0,43.0,3.30,East,101,1.0,8.0,95,0.05,,,0.38,,2013-04-04 14:42:00,
2013-04-04 09:53:00,44.0,43.0,3.30,East,81,2.0,5.0,95,0.06,,,0.40,,2013-04-04 14:53:00,
2013-04-04 10:02:00,44.0,43.0,2.42,East,92,2.0,4.0,95,0.04,,,0.40,,2013-04-04 15:02:00,
2013-04-04 10:12:00,44.0,43.0,2.42,East,92,2.0,4.0,95,0.04,,,0.40,,2013-04-04 15:12:00,
2013-04-04 10:23:00,44.0,43.0,3.30,ESE,105,3.0,8.0,95,0.03,,,0.40,,2013-04-04 15:23:00,
2013-04-04 10:33:00,44.0,43.0,18.36,East,88,2.0,6.0,95,0.02,,,0.40,,2013-04-04 15:33:00,
2013-04-04 10:43:00,44.0,43.0,18.36,East,88,2.0,6.0,95,0.02,,,0.40,,2013-04-04 15:43:00,
2013-04-04 10:53:00,44.0,43.0,3.30,East,92,1.0,8.0,95,0.00,,,0.40,,2013-04-04 15:53:00,
2013-04-04 11:03:00,44.0,43.0,13.75,East,98,5.0,9.0,95,0.00,,,0.40,,2013-04-04 16:03:00,
2013-04-04 11:12:00,44.0,43.0,13.75,East,98,5.0,9.0,95,0.00,,,0.40,,2013-04-04 16:12:00,
2013-04-04 11:23:00,44.0,43.0,3.30,ENE,70,4.0,9.0,95,0.02,,,0.42,,2013-04-04 16:23:00,
2013-04-04 11:32:00,45.0,44.0,32.42,ESE,107,3.0,6.0,95,0.03,,,0.43,,2013-04-04 16:32:00,
2013-04-04 11:42:00,45.0,44.0,32.42,ESE,107,3.0,6.0,95,0.03,,,0.43,,2013-04-04 16:42:00,
2013-04-04 11:53:00,45.0,44.0,3.30,ENE,69,2.0,6.0,95,0.04,,,0.44,,2013-04-04 16:53:00,
2013-04-04 12:03:00,45.0,44.0,-100.00,ESE,103,3.0,8.0,95,0.05,,,0.45,,2013-04-04 17:03:00,
2013-04-04 12:13:00,45.0,44.0,-100.00,ESE,103,3.0,8.0,95,0.05,,,0.45,,2013-04-04 17:13:00,
2013-04-04 12:22:00,44.0,43.0,3.30,East,101,5.0,8.0,95,0.03,,,0.45,,2013-04-04 17:22:00,
2013-04-04 12:33:00,44.0,43.0,19.94,East,96,3.0,9.0,95,0.02,,,0.45,,2013-04-04 17:33:00,
2013-04-04 12:42:00,44.0,43.0,19.94,East,96,3.0,9.0,95,0.02,,,0.45,,2013-04-04 17:42:00,
2013-04-04 12:52:00,44.0,43.0,3.30,ESE,105,3.0,8.0,95,0.01,,,0.45,,2013-04-04 17:52:00,
2013-04-04 13:02:00,44.0,43.0,17.46,SE,130,3.0,8.0,95,0.01,,,0.46,,2013-04-04 18:02:00,
2013-04-04 13:12:00,44.0,43.0,17.46,SE,130,3.0,8.0,95,0.01,,,0.46,,2013-04-04 18:12:00,
2013-04-04 13:22:00,44.0,43.0,3.30,East,94,4.0,9.0,95,0.01,,,0.46,,2013-04-04 18:22:00,
2013-04-04 13:32:00,44.0,43.0,-100.00,East,89,2.0,7.0,95,0.01,,,0.46,,2013-04-04 18:32:00,
2013-04-04 13:42:00,44.0,43.0,-100.00,East,89,2.0,7.0,95,0.01,,,0.46,,2013-04-04 18:42:00,
2013-04-04 13:52:00,44.0,43.0,3.37,East,82,5.0,10.0,95,0.01,,,0.46,,2013-04-04 18:52:00,
2013-04-04 14:02:00,44.0,43.0,3.30,East,89,4.0,11.0,95,0.00,,,0.46,,2013-04-04 19:02:00,
2013-04-04 14:12:00,44.0,43.0,3.30,East,89,4.0,11.0,95,0.00,,,0.46,,2013-04-04 19:12:00,
2013-04-04 14:22:00,44.0,43.0,2.30,ESE,110,5.0,12.0,95,0.00,,,0.46,,2013-04-04 19:22:00,
2013-04-04 14:32:00,44.0,43.0,3.30,East,80,3.0,7.0,95,0.00,,,0.46,,2013-04-04 19:32:00,
2013-04-04 14:42:00,44.0,43.0,3.30,East,80,3.0,7.0,95,0.00,,,0.46,,2013-04-04 19:42:00,
2013-04-04 14:52:00,44.0,43.0,3.30,ENE,69,5.0,9.0,95,0.00,,,0.46,,2013-04-04 19:52:00,
2013-04-04 15:03:00,43.0,42.0,3.30,East,96,4.0,12.0,95,0.00,,,0.46,,2013-04-04 20:03:00,
2013-04-04 15:12:00,43.0,42.0,3.30,East,96,4.0,12.0,95,0.00,,,0.46,,2013-04-04 20:12:00,
2013-04-04 15:22:00,43.0,41.0,3.30,ENE,74,6.0,13.0,94,0.00,,,0.46,,2013-04-04 20:22:00,
2013-04-04 15:32:00,43.0,41.0,3.30,East,99,3.0,9.0,94,0.00,,,0.46,,2013-04-04 20:32:00,
2013-04-04 15:42:00,43.0,41.0,3.30,East,99,3.0,9.0,94,0.00,,,0.46,,2013-04-04 20:42:00,
2013-04-04 15:53:00,44.0,42.0,3.30,East,82,4.0,10.0,94,0.00,,,0.46,,2013-04-04 20:53:00,
2013-04-04 16:02:00,44.0,42.0,3.30,East,101,3.0,7.0,94,0.01,,,0.47,,2013-04-04 21:02:00,
2013-04-04 16:12:00,44.0,42.0,3.30,East,101,3.0,7.0,94,0.01,,,0.47,,2013-04-04 21:12:00,
2013-04-04 16:22:00,44.0,43.0,3.30,East,94,4.0,7.0,95,0.01,,,0.47,,2013-04-04 21:22:00,
2013-04-04 16:32:00,44.0,43.0,3.30,East,86,1.0,4.0,95,0.01,,,0.47,,2013-04-04 21:32:00,
2013-04-04 16:43:00,44.0,43.0,3.30,East,86,1.0,4.0,95,0.01,,,0.47,,2013-04-04 21:43:00,
2013-04-04 16:53:00,44.0,42.0,3.30,East,86,2.0,6.0,94,0.01,,,0.47,,2013-04-04 21:53:00,
2013-04-04 17:03:00,44.0,43.0,3.30,East,81,3.0,6.0,95,0.00,,,0.47,,2013-04-04 22:03:00,
2013-04-04 17:12:00,44.0,43.0,3.30,East,81,3.0,6.0,95,0.00,,,0.47,,2013-04-04 22:12:00,
2013-04-04 17:23:00,44.0,43.0,3.30,ENE,69,4.0,8.0,95,0.00,,,0.47,,2013-04-04 22:23:00,
2013-04-04 17:33:00,44.0,42.0,3.30,East,98,0.0,6.0,94,0.00,,,0.47,,2013-04-04 22:33:00,
2013-04-04 17:42:00,44.0,42.0,3.30,East,98,0.0,6.0,94,0.00,,,0.47,,2013-04-04 22:42:00,
2013-04-04 17:53:00,44.0,42.0,3.30,East,90,0.0,4.0,94,0.00,,,0.47,,2013-04-04 22:53:00,
2013-04-04 18:02:00,44.0,42.0,3.30,ESE,107,3.0,7.0,93,0.00,,,0.47,,2013-04-04 23:02:00,
2013-04-04 18:12:00,44.0,42.0,3.30,ESE,107,3.0,7.0,93,0.00,,,0.47,,2013-04-04 23:12:00,
2013-04-04 18:22:00,44.0,42.0,3.30,East,86,2.0,4.0,93,0.00,,,0.47,,2013-04-04 23:22:00,
2013-04-04 18:32:00,44.0,42.0,3.30,ESE,123,2.0,4.0,93,0.00,,,0.46,,2013-04-04 23:32:00,
2013-04-04 18:42:00,44.0,42.0,3.30,ESE,123,2.0,4.0,93,0.00,,,0.46,,2013-04-04 23:42:00,
2013-04-04 18:52:00,44.0,42.0,3.30,East,96,3.0,6.0,93,0.00,,,0.46,,2013-04-04 23:52:00,
2013-04-04 19:02:00,44.0,42.0,27.56,East,92,0.0,4.0,93,0.00,,,0.46,,2013-04-05 00:02:00,
2013-04-04 19:12:00,44.0,42.0,27.56,East,92,0.0,4.0,93,0.00,,,0.46,,2013-04-05 00:12:00,
2013-04-04 19:22:00,43.0,41.0,-100.00,East,81,1.0,4.0,94,0.00,,,0.46,,2013-04-05 00:22:00,
2013-04-04 19:32:00,43.0,41.0,-100.00,East,92,0.0,3.0,94,0.00,,,0.46,,2013-04-05 00:32:00,
2013-04-04 19:42:00,43.0,41.0,-100.00,East,92,0.0,3.0,94,0.00,,,0.46,,2013-04-05 00:42:00,
2013-04-04 19:52:00,43.0,41.0,-100.00,East,92,0.0,2.0,94,0.00,,,0.46,,2013-04-05 00:52:00,
2013-04-04 20:02:00,43.0,41.0,-100.00,East,92,0.0,2.0,94,0.00,,,0.46,,2013-04-05 01:02:00,
2013-04-04 20:12:00,43.0,41.0,-100.00,East,92,0.0,2.0,94,0.00,,,0.46,,2013-04-05 01:12:00,
2013-04-04 20:22:00,43.0,41.0,14.98,East,91,1.0,3.0,94,0.00,,,0.46,,2013-04-05 01:22:00,
2013-04-04 20:32:00,43.0,41.0,-100.00,East,92,0.0,1.0,94,0.00,,,0.46,,2013-04-05 01:32:00,
2013-04-04 20:42:00,43.0,41.0,-100.00,East,92,0.0,1.0,94,0.00,,,0.46,,2013-04-05 01:42:00,
2013-04-04 20:53:00,43.0,41.0,29.35,East,92,0.0,1.0,94,0.00,,,0.46,,2013-04-05 01:53:00,
2013-04-04 21:03:00,43.0,41.0,-100.00,East,92,0.0,0.0,94,0.00,,,0.46,,2013-04-05 02:03:00,
2013-04-04 21:12:00,43.0,41.0,-100.00,East,92,0.0,0.0,94,0.00,,,0.46,,2013-04-05 02:12:00,
2013-04-04 21:22:00,43.0,42.0,-100.00,East,92,0.0,0.0,95,0.00,,,0.46,,2013-04-05 02:22:00,
2013-04-04 21:32:00,43.0,42.0,-100.00,East,92,0.0,0.0,95,0.00,,,0.46,,2013-04-05 02:32:00,
2013-04-04 21:42:00,43.0,42.0,-100.00,East,92,0.0,0.0,95,0.00,,,0.46,,2013-04-05 02:42:00,
2013-04-04 21:52:00,43.0,42.0,-100.00,East,92,0.0,2.0,95,0.00,,,0.46,,2013-04-05 02:52:00,
2013-04-04 22:02:00,43.0,42.0,-100.00,East,92,0.0,0.0,95,0.00,,,0.46,,2013-04-05 03:02:00,
2013-04-04 22:12:00,43.0,42.0,-100.00,East,92,0.0,0.0,95,0.00,,,0.46,,2013-04-05 03:12:00,
2013-04-04 22:22:00,43.0,42.0,-100.00,East,92,0.0,0.0,95,0.00,,,0.46,,2013-04-05 03:22:00,
2013-04-04 22:32:00,44.0,43.0,-100.00,East,92,0.0,0.0,95,0.00,,,0.46,,2013-04-05 03:32:00,
2013-04-04 22:43:00,44.0,43.0,-100.00,East,92,0.0,0.0,95,0.00,,,0.46,,2013-04-05 03:43:00,
2013-04-04 22:54:00,44.0,43.0,-100.00,East,92,0.0,0.0,95,0.00,,,0.46,,2013-04-05 03:54:00,
2013-04-04 23:02:00,44.0,43.0,-100.00,East,92,0.0,0.0,96,0.00,,,0.46,,2013-04-05 04:02:00,
2013-04-04 23:12:00,44.0,43.0,-100.00,East,92,0.0,0.0,96,0.00,,,0.46,,2013-04-05 04:12:00,
2013-04-04 23:22:00,44.0,43.0,-100.00,East,92,0.0,0.0,96,0.00,,,0.46,,2013-04-05 04:22:00,
2013-04-04 23:32:00,44.0,43.0,-100.00,East,92,0.0,0.0,96,0.00,,,0.45,,2013-04-05 04:32:00,
2013-04-04 23:42:00,44.0,43.0,-100.00,East,92,0.0,0.0,96,0.00,,,0.45,,2013-04-05 04:42:00,
2013-04-04 23:52:00,44.0,43.0,-100.00,East,92,0.0,0.0,96,0.00,,,0.45,,2013-04-05 04:52:00,